sensor_id;sensor_type;location;lat;lon;timestamp;pressure;altitude;pressure_sealevel;temperature;humidity
43707;BME280;61348;53.392;-6.248;2023-04-03T00:00:32;102182.94;;;6.82;87.21
43707;BME280;61348;53.392;-6.248;2023-04-03T00:03:00;102179.66;;;6.80;87.42
43707;BME280;61348;53.392;-6.248;2023-04-03T00:05:27;102180.22;;;6.77;87.40
43707;BME280;61348;53.392;-6.248;2023-04-03T00:07:53;102181.06;;;6.77;87.55
43707;BME280;61348;53.392;-6.248;2023-04-03T00:10:20;102190.41;;;6.76;87.59
43707;BME280;61348;53.392;-6.248;2023-04-03T00:12:47;102177.47;;;6.77;87.53
43707;BME280;61348;53.392;-6.248;2023-04-03T00:15:13;102183.81;;;6.77;87.63
43707;BME280;61348;53.392;-6.248;2023-04-03T00:17:41;102174.72;;;6.77;87.57
43707;BME280;61348;53.392;-6.248;2023-04-03T00:20:08;102173.06;;;6.75;87.55
43707;BME280;61348;53.392;-6.248;2023-04-03T00:22:35;102176.69;;;6.71;87.55
43707;BME280;61348;53.392;-6.248;2023-04-03T00:25:02;102167.06;;;6.68;87.67
43707;BME280;61348;53.392;-6.248;2023-04-03T00:27:29;102167.06;;;6.68;87.92
43707;BME280;61348;53.392;-6.248;2023-04-03T00:29:56;102154.41;;;6.67;87.75
43707;BME280;61348;53.392;-6.248;2023-04-03T00:32:23;102155.53;;;6.66;87.95
43707;BME280;61348;53.392;-6.248;2023-04-03T00:34:49;102151.97;;;6.61;88.00
43707;BME280;61348;53.392;-6.248;2023-04-03T00:37:16;102142.91;;;6.60;88.08
43707;BME280;61348;53.392;-6.248;2023-04-03T00:39:43;102151.16;;;6.60;88.00
43707;BME280;61348;53.392;-6.248;2023-04-03T00:42:09;102147.31;;;6.61;88.23
43707;BME280;61348;53.392;-6.248;2023-04-03T00:47:06;102137.97;;;6.57;88.07
43707;BME280;61348;53.392;-6.248;2023-04-03T00:49:34;102129.47;;;6.54;88.20
43707;BME280;61348;53.392;-6.248;2023-04-03T00:52:01;102133.88;;;6.50;88.25
43707;BME280;61348;53.392;-6.248;2023-04-03T00:54:29;102127.28;;;6.51;88.49
43707;BME280;61348;53.392;-6.248;2023-04-03T00:56:57;102124.81;;;6.49;88.37
43707;BME280;61348;53.392;-6.248;2023-04-03T00:59:28;102125.94;;;6.48;88.52
43707;BME280;61348;53.392;-6.248;2023-04-03T01:01:57;102126.19;;;6.47;88.51
43707;BME280;61348;53.392;-6.248;2023-04-03T01:04:32;102127.84;;;6.48;88.44
43707;BME280;61348;53.392;-6.248;2023-04-03T01:07:23;102135.28;;;6.47;88.54
43707;BME280;61348;53.392;-6.248;2023-04-03T01:09:56;102130.88;;;6.46;88.59
43707;BME280;61348;53.392;-6.248;2023-04-03T01:12:35;102133.09;;;6.44;88.45
43707;BME280;61348;53.392;-6.248;2023-04-03T01:15:09;102134.22;;;6.43;88.58
43707;BME280;61348;53.392;-6.248;2023-04-03T01:28:10;102127.31;;;6.41;88.81
43707;BME280;61348;53.392;-6.248;2023-04-03T01:30:45;102120.47;;;6.38;89.05
43707;BME280;61348;53.392;-6.248;2023-04-03T01:33:14;102116.09;;;6.37;89.06
43707;BME280;61348;53.392;-6.248;2023-04-03T01:35:41;102110.59;;;6.37;89.30
43707;BME280;61348;53.392;-6.248;2023-04-03T01:38:08;102117.47;;;6.35;89.32
43707;BME280;61348;53.392;-6.248;2023-04-03T01:40:35;102105.13;;;6.32;89.49
43707;BME280;61348;53.392;-6.248;2023-04-03T01:43:02;102101.25;;;6.33;89.55
43707;BME280;61348;53.392;-6.248;2023-04-03T01:45:29;102102.91;;;6.34;89.68
43707;BME280;61348;53.392;-6.248;2023-04-03T01:47:56;102105.66;;;6.34;89.95
43707;BME280;61348;53.392;-6.248;2023-04-03T01:50:23;102105.66;;;6.34;90.12
43707;BME280;61348;53.392;-6.248;2023-04-03T01:52:50;102107.31;;;6.35;90.15
43707;BME280;61348;53.392;-6.248;2023-04-03T01:55:16;102109.75;;;6.37;90.26
43707;BME280;61348;53.392;-6.248;2023-04-03T01:57:43;102105.09;;;6.37;90.28
43707;BME280;61348;53.392;-6.248;2023-04-03T02:00:10;102102.88;;;6.39;90.30
43707;BME280;61348;53.392;-6.248;2023-04-03T02:02:37;102110.03;;;6.40;90.66
43707;BME280;61348;53.392;-6.248;2023-04-03T02:05:04;102094.31;;;6.41;90.64
43707;BME280;61348;53.392;-6.248;2023-04-03T02:07:31;102101.47;;;6.42;90.64
43707;BME280;61348;53.392;-6.248;2023-04-03T02:09:57;102094.31;;;6.41;90.82
43707;BME280;61348;53.392;-6.248;2023-04-03T02:12:24;102095.97;;;6.42;91.07
43707;BME280;61348;53.392;-6.248;2023-04-03T02:14:51;102093.78;;;6.39;90.98
43707;BME280;61348;53.392;-6.248;2023-04-03T02:17:18;102090.75;;;6.40;91.00
43707;BME280;61348;53.392;-6.248;2023-04-03T02:19:44;102085.25;;;6.40;91.17
43707;BME280;61348;53.392;-6.248;2023-04-03T02:22:11;102083.31;;;6.41;91.43
43707;BME280;61348;53.392;-6.248;2023-04-03T02:24:38;102084.13;;;6.41;91.54
43707;BME280;61348;53.392;-6.248;2023-04-03T02:27:06;102089.63;;;6.41;91.71
43707;BME280;61348;53.392;-6.248;2023-04-03T02:29:33;102089.06;;;6.44;91.66
43707;BME280;61348;53.392;-6.248;2023-04-03T02:32:00;102079.72;;;6.45;91.71
43707;BME280;61348;53.392;-6.248;2023-04-03T02:34:26;102084.66;;;6.48;91.74
43707;BME280;61348;53.392;-6.248;2023-04-03T02:36:53;102079.69;;;6.50;92.01
43707;BME280;61348;53.392;-6.248;2023-04-03T02:39:20;102079.69;;;6.50;92.08
43707;BME280;61348;53.392;-6.248;2023-04-03T02:41:47;102072.25;;;6.51;92.19
43707;BME280;61348;53.392;-6.248;2023-04-03T02:44:13;102074.72;;;6.52;92.25
43707;BME280;61348;53.392;-6.248;2023-04-03T02:46:40;102076.38;;;6.53;92.45
43707;BME280;61348;53.392;-6.248;2023-04-03T02:49:07;102067.56;;;6.56;92.40
43707;BME280;61348;53.392;-6.248;2023-04-03T02:51:34;102061.75;;;6.58;92.58
43707;BME280;61348;53.392;-6.248;2023-04-03T02:54:01;102068.91;;;6.59;92.71
43707;BME280;61348;53.392;-6.248;2023-04-03T02:56:27;102058.69;;;6.59;92.83
43707;BME280;61348;53.392;-6.248;2023-04-03T02:58:54;102059.25;;;6.61;92.78
43707;BME280;61348;53.392;-6.248;2023-04-03T03:01:21;102061.44;;;6.64;92.87
43707;BME280;61348;53.392;-6.248;2023-04-03T03:03:48;102049.81;;;6.67;92.82
43707;BME280;61348;53.392;-6.248;2023-04-03T03:06:16;102056.69;;;6.70;92.95
43707;BME280;61348;53.392;-6.248;2023-04-03T03:08:43;102046.50;;;6.70;93.13
43707;BME280;61348;53.392;-6.248;2023-04-03T03:11:10;102053.38;;;6.73;93.14
43707;BME280;61348;53.392;-6.248;2023-04-03T03:13:38;102044.88;;;6.69;93.30
43707;BME280;61348;53.392;-6.248;2023-04-03T03:16:05;102036.06;;;6.67;93.40
43707;BME280;61348;53.392;-6.248;2023-04-03T03:18:32;102027.84;;;6.62;93.42
43707;BME280;61348;53.392;-6.248;2023-04-03T03:21:01;102031.19;;;6.59;93.58
43707;BME280;61348;53.392;-6.248;2023-04-03T03:23:29;102038.91;;;6.57;93.58
43707;BME280;61348;53.392;-6.248;2023-04-03T03:25:58;102027.94;;;6.52;93.86
43707;BME280;61348;53.392;-6.248;2023-04-03T03:28:25;102027.41;;;6.50;94.05
43707;BME280;61348;53.392;-6.248;2023-04-03T03:30:52;102025.75;;;6.49;94.04
43707;BME280;61348;53.392;-6.248;2023-04-03T03:33:19;102023.00;;;6.49;94.31
43707;BME280;61348;53.392;-6.248;2023-04-03T03:35:46;102021.38;;;6.48;94.41
43707;BME280;61348;53.392;-6.248;2023-04-03T03:38:13;102017.81;;;6.48;94.50
43707;BME280;61348;53.392;-6.248;2023-04-03T03:40:39;102012.56;;;6.46;94.77
43707;BME280;61348;53.392;-6.248;2023-04-03T03:43:06;102016.97;;;6.47;94.72
43707;BME280;61348;53.392;-6.248;2023-04-03T03:45:33;102006.81;;;6.48;94.92
43707;BME280;61348;53.392;-6.248;2023-04-03T03:48:01;102018.63;;;6.48;95.03
43707;BME280;61348;53.392;-6.248;2023-04-03T03:50:28;102006.50;;;6.49;95.12
43707;BME280;61348;53.392;-6.248;2023-04-03T03:52:55;102017.25;;;6.51;95.16
43707;BME280;61348;53.392;-6.248;2023-04-03T03:55:21;102005.09;;;6.52;95.25
43707;BME280;61348;53.392;-6.248;2023-04-03T03:57:48;102014.19;;;6.52;95.37
43707;BME280;61348;53.392;-6.248;2023-04-03T04:00:15;102000.16;;;6.54;95.83
43707;BME280;61348;53.392;-6.248;2023-04-03T04:02:43;102009.78;;;6.56;95.81
43707;BME280;61348;53.392;-6.248;2023-04-03T04:05:10;102003.66;;;6.59;96.08
43707;BME280;61348;53.392;-6.248;2023-04-03T04:07:36;101999.81;;;6.60;96.02
43707;BME280;61348;53.392;-6.248;2023-04-03T04:10:03;102002.00;;;6.63;96.16
43707;BME280;61348;53.392;-6.248;2023-04-03T04:12:30;102002.53;;;6.65;96.45
43707;BME280;61348;53.392;-6.248;2023-04-03T04:14:57;102004.69;;;6.68;96.70
43707;BME280;61348;53.392;-6.248;2023-04-03T04:17:23;102005.22;;;6.70;96.57
43707;BME280;61348;53.392;-6.248;2023-04-03T04:19:50;102004.66;;;6.73;96.81
43707;BME280;61348;53.392;-6.248;2023-04-03T04:22:17;102002.44;;;6.75;96.89
43707;BME280;61348;53.392;-6.248;2023-04-03T04:24:44;102007.34;;;6.79;97.30
43707;BME280;61348;53.392;-6.248;2023-04-03T04:27:10;102007.88;;;6.81;97.30
43707;BME280;61348;53.392;-6.248;2023-04-03T04:29:37;102011.72;;;6.85;97.61
43707;BME280;61348;53.392;-6.248;2023-04-03T04:32:04;102001.75;;;6.89;97.50
43707;BME280;61348;53.392;-6.248;2023-04-03T04:34:31;102004.44;;;6.94;97.41
43707;BME280;61348;53.392;-6.248;2023-04-03T04:36:58;102008.28;;;6.98;97.28
43707;BME280;61348;53.392;-6.248;2023-04-03T04:39:25;102003.03;;;7.01;97.47
43707;BME280;61348;53.392;-6.248;2023-04-03T04:41:52;102008.47;;;7.06;97.50
43707;BME280;61348;53.392;-6.248;2023-04-03T04:44:18;101996.88;;;7.09;97.47
43707;BME280;61348;53.392;-6.248;2023-04-03T04:46:46;102012.81;;;7.12;97.21
43707;BME280;61348;53.392;-6.248;2023-04-03T04:49:13;102002.34;;;7.14;97.24
43707;BME280;61348;53.392;-6.248;2023-04-03T04:51:40;102000.38;;;7.15;97.26
43707;BME280;61348;53.392;-6.248;2023-04-03T04:54:17;102000.16;;;7.11;97.08
43707;BME280;61348;53.392;-6.248;2023-04-03T04:56:44;102002.66;;;7.08;97.06
43707;BME280;61348;53.392;-6.248;2023-04-03T04:59:11;102009.88;;;7.04;97.13
43707;BME280;61348;53.392;-6.248;2023-04-03T05:01:38;102006.88;;;7.00;97.18
43707;BME280;61348;53.392;-6.248;2023-04-03T05:04:05;102003.59;;;6.98;97.28
43707;BME280;61348;53.392;-6.248;2023-04-03T05:06:32;102002.78;;;6.98;97.35
43707;BME280;61348;53.392;-6.248;2023-04-03T05:08:59;102008.28;;;6.98;97.30
43707;BME280;61348;53.392;-6.248;2023-04-03T05:11:26;102002.47;;;6.99;97.25
43707;BME280;61348;53.392;-6.248;2023-04-03T05:13:53;102001.06;;;7.02;97.24
43707;BME280;61348;53.392;-6.248;2023-04-03T05:16:19;102000.81;;;7.03;97.11
43707;BME280;61348;53.392;-6.248;2023-04-03T05:18:46;102000.50;;;7.05;97.00
43707;BME280;61348;53.392;-6.248;2023-04-03T05:21:13;102006.56;;;7.07;96.82
43707;BME280;61348;53.392;-6.248;2023-04-03T05:23:40;102002.66;;;7.08;96.67
43707;BME280;61348;53.392;-6.248;2023-04-03T05:26:06;102007.59;;;7.11;96.60
43707;BME280;61348;53.392;-6.248;2023-04-03T05:28:33;102013.63;;;7.13;96.47
43707;BME280;61348;53.392;-6.248;2023-04-03T05:31:00;102007.03;;;7.14;96.23
43707;BME280;61348;53.392;-6.248;2023-04-03T05:33:27;102005.88;;;7.15;96.21
43707;BME280;61348;53.392;-6.248;2023-04-03T05:35:54;102013.06;;;7.16;96.31
43707;BME280;61348;53.392;-6.248;2023-04-03T05:38:21;102008.06;;;7.18;96.04
43707;BME280;61348;53.392;-6.248;2023-04-03T05:40:48;102011.94;;;7.17;95.95
43707;BME280;61348;53.392;-6.248;2023-04-03T05:43:14;102014.69;;;7.17;95.91
43707;BME280;61348;53.392;-6.248;2023-04-03T05:45:42;102013.06;;;7.16;95.70
43707;BME280;61348;53.392;-6.248;2023-04-03T05:48:12;102015.53;;;7.17;95.62
43707;BME280;61348;53.392;-6.248;2023-04-03T05:50:39;102015.53;;;7.17;95.54
43707;BME280;61348;53.392;-6.248;2023-04-03T05:53:25;102012.47;;;7.19;95.67
43707;BME280;61348;53.392;-6.248;2023-04-03T05:55:53;102009.41;;;7.20;95.75
43707;BME280;61348;53.392;-6.248;2023-04-03T05:58:20;102018.44;;;7.26;95.63
43707;BME280;61348;53.392;-6.248;2023-04-03T06:00:47;102019.78;;;7.28;95.60
43707;BME280;61348;53.392;-6.248;2023-04-03T06:03:14;102010.94;;;7.31;95.67
43707;BME280;61348;53.392;-6.248;2023-04-03T06:05:41;102020.56;;;7.34;95.67
43707;BME280;61348;53.392;-6.248;2023-04-03T06:08:08;102017.75;;;7.39;95.77
43707;BME280;61348;53.392;-6.248;2023-04-03T06:10:35;102014.94;;;7.44;95.77
43707;BME280;61348;53.392;-6.248;2023-04-03T06:13:02;102010.75;;;7.47;96.07
43707;BME280;61348;53.392;-6.248;2023-04-03T06:15:29;102004.97;;;7.48;96.18
43707;BME280;61348;53.392;-6.248;2023-04-03T06:17:56;102005.81;;;7.49;96.35
43707;BME280;61348;53.392;-6.248;2023-04-03T06:20:24;102004.41;;;7.51;96.40
43707;BME280;61348;53.392;-6.248;2023-04-03T06:22:50;102005.50;;;7.50;96.35
43707;BME280;61348;53.392;-6.248;2023-04-03T06:25:17;102004.97;;;7.48;96.46
43707;BME280;61348;53.392;-6.248;2023-04-03T06:27:45;102008.84;;;7.47;96.47
43707;BME280;61348;53.392;-6.248;2023-04-03T06:30:12;102000.06;;;7.45;96.52
43707;BME280;61348;53.392;-6.248;2023-04-03T06:32:39;102005.25;;;7.47;96.39
43707;BME280;61348;53.392;-6.248;2023-04-03T06:35:07;102005.25;;;7.47;96.56
43707;BME280;61348;53.392;-6.248;2023-04-03T06:37:34;102010.75;;;7.47;96.56
43707;BME280;61348;53.392;-6.248;2023-04-03T06:40:01;102007.72;;;7.48;96.65
43707;BME280;61348;53.392;-6.248;2023-04-03T06:42:28;102016.28;;;7.47;96.60
43707;BME280;61348;53.392;-6.248;2023-04-03T06:44:55;102006.09;;;7.47;96.68
43707;BME280;61348;53.392;-6.248;2023-04-03T06:47:22;102008.56;;;7.49;96.67
43707;BME280;61348;53.392;-6.248;2023-04-03T06:49:48;102017.66;;;7.49;96.58
43707;BME280;61348;53.392;-6.248;2023-04-03T06:52:15;102024.78;;;7.50;96.36
43707;BME280;61348;53.392;-6.248;2023-04-03T06:54:42;102019.84;;;7.47;96.45
43707;BME280;61348;53.392;-6.248;2023-04-03T06:57:08;102022.09;;;7.45;96.33
43707;BME280;61348;53.392;-6.248;2023-04-03T06:59:36;102020.44;;;7.44;96.42
43707;BME280;61348;53.392;-6.248;2023-04-03T07:02:03;102023.19;;;7.44;96.39
43707;BME280;61348;53.392;-6.248;2023-04-03T07:04:30;102028.69;;;7.44;96.39
43707;BME280;61348;53.392;-6.248;2023-04-03T07:06:57;102024.84;;;7.45;96.43
43707;BME280;61348;53.392;-6.248;2023-04-03T07:09:23;102014.34;;;7.47;96.29
43707;BME280;61348;53.392;-6.248;2023-04-03T07:11:51;102012.94;;;7.50;96.14
43707;BME280;61348;53.392;-6.248;2023-04-03T07:14:17;102019.53;;;7.54;96.13
43707;BME280;61348;53.392;-6.248;2023-04-03T07:16:44;102016.47;;;7.55;95.88
43707;BME280;61348;53.392;-6.248;2023-04-03T07:19:11;102017.53;;;7.59;95.91
43707;BME280;61348;53.392;-6.248;2023-04-03T07:21:38;102012.53;;;7.61;95.54
43707;BME280;61348;53.392;-6.248;2023-04-03T07:24:05;102027.34;;;7.65;95.44
43707;BME280;61348;53.392;-6.248;2023-04-03T07:26:34;102015.75;;;7.68;95.48
43707;BME280;61348;53.392;-6.248;2023-04-03T07:29:01;102020.66;;;7.71;95.12
43707;BME280;61348;53.392;-6.248;2023-04-03T07:31:28;102020.09;;;7.74;94.95
43707;BME280;61348;53.392;-6.248;2023-04-03T07:33:56;102021.44;;;7.77;94.85
43707;BME280;61348;53.392;-6.248;2023-04-03T07:36:23;102028.28;;;7.79;94.72
43707;BME280;61348;53.392;-6.248;2023-04-03T07:38:50;102026.03;;;7.81;94.51
43707;BME280;61348;53.392;-6.248;2023-04-03T07:41:18;102032.63;;;7.85;94.40
43707;BME280;61348;53.392;-6.248;2023-04-03T07:43:46;102032.31;;;7.87;94.34
43707;BME280;61348;53.392;-6.248;2023-04-03T07:46:13;102034.78;;;7.88;94.22
43707;BME280;61348;53.392;-6.248;2023-04-03T07:48:40;102048.59;;;7.88;93.94
43707;BME280;61348;53.392;-6.248;2023-04-03T07:51:07;102051.34;;;7.88;93.60
43707;BME280;61348;53.392;-6.248;2023-04-03T07:53:34;102043.06;;;7.88;93.51
43707;BME280;61348;53.392;-6.248;2023-04-03T07:56:00;102054.09;;;7.88;93.41
43707;BME280;61348;53.392;-6.248;2023-04-03T07:58:29;102043.06;;;7.88;93.40
43707;BME280;61348;53.392;-6.248;2023-04-03T08:00:56;102049.69;;;7.87;93.35
43707;BME280;61348;53.392;-6.248;2023-04-03T08:03:23;102043.88;;;7.89;93.35
43707;BME280;61348;53.392;-6.248;2023-04-03T08:05:51;102052.88;;;7.94;93.05
43707;BME280;61348;53.392;-6.248;2023-04-03T08:08:21;102044.53;;;7.99;93.03
43707;BME280;61348;53.392;-6.248;2023-04-03T08:10:52;102051.13;;;8.04;93.09
43707;BME280;61348;53.392;-6.248;2023-04-03T08:13:20;102048.28;;;8.09;92.94
43707;BME280;61348;53.392;-6.248;2023-04-03T08:15:47;102048.75;;;8.16;92.94
43707;BME280;61348;53.392;-6.248;2023-04-03T08:18:15;102043.47;;;8.19;92.62
43707;BME280;61348;53.392;-6.248;2023-04-03T08:20:42;102057.78;;;8.21;92.46
43707;BME280;61348;53.392;-6.248;2023-04-03T08:23:09;102049.22;;;8.23;92.46
43707;BME280;61348;53.392;-6.248;2023-04-03T08:25:40;102053.78;;;8.32;92.48
43707;BME280;61348;53.392;-6.248;2023-04-03T08:28:09;102057.59;;;8.36;92.28
43707;BME280;61348;53.392;-6.248;2023-04-03T08:30:38;102054.53;;;8.38;92.14
43707;BME280;61348;53.392;-6.248;2023-04-03T08:33:05;102051.19;;;8.41;92.23
43707;BME280;61348;53.392;-6.248;2023-04-03T08:35:32;102052.44;;;8.48;92.15
43707;BME280;61348;53.392;-6.248;2023-04-03T08:38:01;102048.78;;;8.53;92.07
43707;BME280;61348;53.392;-6.248;2023-04-03T08:40:28;102057.28;;;8.56;91.91
43707;BME280;61348;53.392;-6.248;2023-04-03T08:45:48;102060.41;;;8.50;91.63
43707;BME280;61348;53.392;-6.248;2023-04-03T08:50:58;102063.84;;;8.42;91.38
43707;BME280;61348;53.392;-6.248;2023-04-03T08:53:32;102072.34;;;8.45;91.50
43707;BME280;61348;53.392;-6.248;2023-04-03T08:56:06;102059.22;;;8.56;91.69
43707;BME280;61348;53.392;-6.248;2023-04-03T08:58:45;102060.94;;;8.71;91.38
43707;BME280;61348;53.392;-6.248;2023-04-03T09:01:21;102076.00;;;8.78;90.92
43707;BME280;61348;53.392;-6.248;2023-04-03T09:03:50;102065.47;;;8.80;90.95
43707;BME280;61348;53.392;-6.248;2023-04-03T09:06:29;102071.72;;;8.86;90.94
43707;BME280;61348;53.392;-6.248;2023-04-03T09:09:31;102068.00;;;9.09;90.69
43707;BME280;61348;53.392;-6.248;2023-04-03T09:12:17;102075.31;;;9.32;90.36
43707;BME280;61348;53.392;-6.248;2023-04-03T09:14:57;102079.97;;;9.64;90.24
43707;BME280;61348;53.392;-6.248;2023-04-03T09:23:22;102074.44;;;9.91;90.10
43707;BME280;61348;53.392;-6.248;2023-04-03T09:25:54;102077.91;;;10.10;89.45
43707;BME280;61348;53.392;-6.248;2023-04-03T09:28:23;102076.47;;;10.26;88.77
43707;BME280;61348;53.392;-6.248;2023-04-03T09:30:49;102069.91;;;10.80;89.46
43707;BME280;61348;53.392;-6.248;2023-04-03T09:33:16;102075.78;;;11.62;87.63
43707;BME280;61348;53.392;-6.248;2023-04-03T09:35:44;102068.63;;;12.01;86.27
43707;BME280;61348;53.392;-6.248;2023-04-03T09:38:20;102062.59;;;11.99;85.19
43707;BME280;61348;53.392;-6.248;2023-04-03T09:41:04;102067.31;;;11.68;85.34
43707;BME280;61348;53.392;-6.248;2023-04-03T09:43:33;102062.34;;;11.47;86.13
43707;BME280;61348;53.392;-6.248;2023-04-03T09:46:38;102067.25;;;11.50;85.00
43707;BME280;61348;53.392;-6.248;2023-04-03T09:49:11;102060.78;;;11.24;84.75
43707;BME280;61348;53.392;-6.248;2023-04-03T09:51:38;102055.50;;;10.92;84.28
43707;BME280;61348;53.392;-6.248;2023-04-03T09:54:32;102052.97;;;10.60;84.59
43707;BME280;61348;53.392;-6.248;2023-04-03T09:57:14;102053.09;;;10.32;84.51
43707;BME280;61348;53.392;-6.248;2023-04-03T09:59:57;102053.75;;;10.16;84.61
43707;BME280;61348;53.392;-6.248;2023-04-03T10:02:39;102055.38;;;10.03;84.87
43707;BME280;61348;53.392;-6.248;2023-04-03T10:08:09;102049.66;;;9.86;84.87
43707;BME280;61348;53.392;-6.248;2023-04-03T10:10:37;102062.53;;;9.77;84.63
43707;BME280;61348;53.392;-6.248;2023-04-03T10:13:10;102058.28;;;9.71;84.52
43707;BME280;61348;53.392;-6.248;2023-04-03T10:15:58;102056.22;;;9.63;84.69
43707;BME280;61348;53.392;-6.248;2023-04-03T10:18:42;102048.03;;;9.58;84.72
43707;BME280;61348;53.392;-6.248;2023-04-03T10:21:47;102058.34;;;9.52;84.65
43707;BME280;61348;53.392;-6.248;2023-04-03T10:35:48;102057.19;;;9.12;84.53
43707;BME280;61348;53.392;-6.248;2023-04-03T10:38:36;102058.38;;;9.06;84.59
43707;BME280;61348;53.392;-6.248;2023-04-03T10:41:16;102056.13;;;9.08;84.56
43707;BME280;61348;53.392;-6.248;2023-04-03T10:46:38;102054.41;;;9.12;84.73
43707;BME280;61348;53.392;-6.248;2023-04-03T10:49:23;102055.53;;;9.11;84.80
43707;BME280;61348;53.392;-6.248;2023-04-03T10:54:39;102058.00;;;9.27;84.98
43707;BME280;61348;53.392;-6.248;2023-04-03T10:57:09;102056.19;;;9.36;84.70
43707;BME280;61348;53.392;-6.248;2023-04-03T10:59:51;102054.16;;;9.41;84.73
43707;BME280;61348;53.392;-6.248;2023-04-03T11:02:32;102049.03;;;9.48;84.70
43707;BME280;61348;53.392;-6.248;2023-04-03T11:05:13;102055.78;;;9.56;84.64
43707;BME280;61348;53.392;-6.248;2023-04-03T11:07:51;102051.28;;;9.60;84.60
43707;BME280;61348;53.392;-6.248;2023-04-03T11:13:04;102051.09;;;9.84;84.56
43707;BME280;61348;53.392;-6.248;2023-04-03T11:15:34;102045.22;;;9.99;84.35
43707;BME280;61348;53.392;-6.248;2023-04-03T11:18:06;102043.28;;;10.13;83.96
43707;BME280;61348;53.392;-6.248;2023-04-03T11:20:42;102048.78;;;10.26;84.19
43707;BME280;61348;53.392;-6.248;2023-04-03T11:23:29;102050.00;;;10.34;84.01
43707;BME280;61348;53.392;-6.248;2023-04-03T11:26:16;102044.66;;;10.37;83.93
43707;BME280;61348;53.392;-6.248;2023-04-03T11:28:44;102048.94;;;10.44;83.78
43707;BME280;61348;53.392;-6.248;2023-04-03T11:31:18;102048.44;;;10.42;83.49
43707;BME280;61348;53.392;-6.248;2023-04-03T11:34:33;102041.38;;;10.35;83.66
43707;BME280;61348;53.392;-6.248;2023-04-03T11:37:11;102040.28;;;10.23;83.58
43707;BME280;61348;53.392;-6.248;2023-04-03T11:39:41;102049.03;;;10.16;83.80
43707;BME280;61348;53.392;-6.248;2023-04-03T11:42:25;102049.41;;;10.23;84.13
43707;BME280;61348;53.392;-6.248;2023-04-03T11:47:53;102041.78;;;10.43;83.20
43707;BME280;61348;53.392;-6.248;2023-04-03T11:50:41;102048.72;;;10.54;83.21
43707;BME280;61348;53.392;-6.248;2023-04-03T11:58:17;102030.84;;;10.82;82.72
43707;BME280;61348;53.392;-6.248;2023-04-03T12:21:24;102033.13;;;10.80;82.23
43707;BME280;61348;53.392;-6.248;2023-04-03T12:27:01;102033.06;;;11.02;82.12
43707;BME280;61348;53.392;-6.248;2023-04-03T12:35:27;102013.69;;;11.02;81.41
43707;BME280;61348;53.392;-6.248;2023-04-03T12:41:19;102009.00;;;11.11;81.13
43707;BME280;61348;53.392;-6.248;2023-04-03T12:46:45;102006.38;;;11.06;80.99
43707;BME280;61348;53.392;-6.248;2023-04-03T12:52:04;102015.47;;;10.98;81.04
43707;BME280;61348;53.392;-6.248;2023-04-03T12:54:35;102006.38;;;11.06;80.96
43707;BME280;61348;53.392;-6.248;2023-04-03T12:59:42;101999.88;;;11.11;80.78
43707;BME280;61348;53.392;-6.248;2023-04-03T13:04:48;101989.69;;;11.28;80.80
43707;BME280;61348;53.392;-6.248;2023-04-03T13:07:30;102003.91;;;11.35;80.21
43707;BME280;61348;53.392;-6.248;2023-04-03T13:12:34;101997.06;;;11.41;79.91
43707;BME280;61348;53.392;-6.248;2023-04-03T13:15:16;101993.38;;;11.54;79.70
43707;BME280;61348;53.392;-6.248;2023-04-03T13:17:44;102010.44;;;11.70;79.55
43707;BME280;61348;53.392;-6.248;2023-04-03T13:22:57;101988.78;;;11.98;79.01
43707;BME280;61348;53.392;-6.248;2023-04-03T13:25:29;101994.47;;;11.93;78.79
43707;BME280;61348;53.392;-6.248;2023-04-03T13:27:59;101995.94;;;11.82;78.50
43707;BME280;61348;53.392;-6.248;2023-04-03T13:30:41;101992.81;;;11.75;78.90
43707;BME280;61348;53.392;-6.248;2023-04-03T13:33:24;101978.63;;;11.85;78.72
43707;BME280;61348;53.392;-6.248;2023-04-03T13:38:33;101968.88;;;12.13;78.31
43707;BME280;61348;53.392;-6.248;2023-04-03T13:41:20;101982.44;;;12.23;77.83
43707;BME280;61348;53.392;-6.248;2023-04-03T13:43:48;101973.13;;;12.36;77.80
43707;BME280;61348;53.392;-6.248;2023-04-03T13:48:49;101968.53;;;12.57;77.10
43707;BME280;61348;53.392;-6.248;2023-04-03T13:51:26;101960.34;;;12.52;76.92
43707;BME280;61348;53.392;-6.248;2023-04-03T13:54:01;101964.13;;;12.48;76.80
43707;BME280;61348;53.392;-6.248;2023-04-03T13:56:39;101961.03;;;12.49;76.48
43707;BME280;61348;53.392;-6.248;2023-04-03T14:01:56;101961.69;;;12.46;75.97
43707;BME280;61348;53.392;-6.248;2023-04-03T14:07:13;101960.69;;;12.08;75.75
43707;BME280;61348;53.392;-6.248;2023-04-03T14:09:40;101959.06;;;12.15;76.05
43707;BME280;61348;53.392;-6.248;2023-04-03T14:12:29;101961.53;;;12.26;75.88
43707;BME280;61348;53.392;-6.248;2023-04-03T14:15:00;101964.94;;;12.40;75.88
43707;BME280;61348;53.392;-6.248;2023-04-03T14:17:28;101954.97;;;12.56;75.33
43707;BME280;61348;53.392;-6.248;2023-04-03T14:19:55;101949.38;;;12.73;75.15
43707;BME280;61348;53.392;-6.248;2023-04-03T14:22:29;101957.66;;;12.90;75.07
43707;BME280;61348;53.392;-6.248;2023-04-03T14:24:57;101959.94;;;12.97;74.49
43707;BME280;61348;53.392;-6.248;2023-04-03T14:27:31;101954.03;;;12.98;73.83
43707;BME280;61348;53.392;-6.248;2023-04-03T14:30:00;101942.41;;;13.05;73.83
43707;BME280;61348;53.392;-6.248;2023-04-03T14:32:29;101948.28;;;13.20;73.79
43707;BME280;61348;53.392;-6.248;2023-04-03T14:34:56;101939.75;;;13.25;73.22
43707;BME280;61348;53.392;-6.248;2023-04-03T14:37:27;101931.88;;;13.27;72.86
43707;BME280;61348;53.392;-6.248;2023-04-03T14:39:57;101937.97;;;13.21;72.57
43707;BME280;61348;53.392;-6.248;2023-04-03T14:42:28;101936.31;;;13.20;72.40
43707;BME280;61348;53.392;-6.248;2023-04-03T14:44:58;101929.44;;;13.26;72.25
43707;BME280;61348;53.392;-6.248;2023-04-03T14:47:26;101924.16;;;13.33;72.22
43707;BME280;61348;53.392;-6.248;2023-04-03T14:49:59;101924.31;;;13.36;71.96
43707;BME280;61348;53.392;-6.248;2023-04-03T14:52:30;101920.56;;;13.32;71.35
43707;BME280;61348;53.392;-6.248;2023-04-03T14:54:57;101922.59;;;13.23;71.43
43707;BME280;61348;53.392;-6.248;2023-04-03T14:57:26;101920.78;;;13.19;71.09